KLM17M SBRF-GCXO
Flight info
| Callsign | KLM17M |
|---|---|
| Flight time | N/A |
| Altitude | 39000 |
| Route | FNR UN857 GUNET/N0440F380 DCT ISOKA/N0433F370 N873 UDATI/N0433F380 DCT MERAN DCT COSSE |
| Aircraft | A321/M-SDE3FGHIRWY/LB1 |
Departure
| Time | 2026-04-30 20:49 |
|---|---|
| Airport | Recife/Guararapes - Gilberto Freyre International Airport (SBRF) |
Arrival
| Time | N/A |
|---|---|
| Airport | Tenerife Norte-Ciudad de La Laguna Airport (GCXO) |
| Time | Latitude | Longitude | Altitude | Speed | Heading |
|---|---|---|---|---|---|
| 2026-04-30 20:32 | -8.13142 | -34.91921 | 45 ft | 0 kts | 72° |
| 2026-04-30 20:39 | -8.13146 | -34.91933 | 46 ft | 4 kts | 75° |
| 2026-04-30 20:39 | -8.13151 | -34.91960 | 44 ft | 4 kts | 87° |
| 2026-04-30 20:40 | -8.13150 | -34.91983 | 43 ft | 3 kts | 110° |
| 2026-04-30 20:41 | -8.13148 | -34.91987 | 42 ft | 2 kts | 110° |
| 2026-04-30 20:41 | -8.13146 | -34.91997 | 41 ft | 1 kts | 35° |
| 2026-04-30 20:41 | -8.13158 | -34.91999 | 42 ft | 4 kts | 334° |
| 2026-04-30 20:41 | -8.13159 | -34.91998 | 42 ft | 3 kts | 336° |
| 2026-04-30 20:42 | -8.13127 | -34.92008 | 43 ft | 4 kts | 342° |
| 2026-04-30 20:42 | -8.13108 | -34.92014 | 46 ft | 2 kts | 342° |
| 2026-04-30 20:42 | -8.13104 | -34.92016 | 46 ft | 0 kts | 342° |
| 2026-04-30 20:43 | -8.13071 | -34.92026 | 47 ft | 8 kts | 342° |
| 2026-04-30 20:43 | -8.13025 | -34.92041 | 46 ft | 6 kts | 342° |
| 2026-04-30 20:43 | -8.12991 | -34.92052 | 49 ft | 4 kts | 342° |
| 2026-04-30 20:44 | -8.12854 | -34.92096 | 48 ft | 14 kts | 342° |
| 2026-04-30 20:44 | -8.12763 | -34.92125 | 47 ft | 13 kts | 342° |
| 2026-04-30 20:44 | -8.12602 | -34.92177 | 49 ft | 11 kts | 342° |
| 2026-04-30 20:45 | -8.12450 | -34.92227 | 46 ft | 13 kts | 340° |
| 2026-04-30 20:45 | -8.12364 | -34.92258 | 48 ft | 13 kts | 340° |
| 2026-04-30 20:45 | -8.12283 | -34.92283 | 47 ft | 12 kts | 344° |
| 2026-04-30 20:46 | -8.11946 | -34.92393 | 41 ft | 19 kts | 342° |
| 2026-04-30 20:46 | -8.11824 | -34.92432 | 40 ft | 18 kts | 342° |
| 2026-04-30 20:47 | -8.11587 | -34.92528 | 44 ft | 21 kts | 322° |
| 2026-04-30 20:47 | -8.11482 | -34.92623 | 45 ft | 14 kts | 316° |
| 2026-04-30 20:48 | -8.11518 | -34.92686 | 44 ft | 5 kts | 165° |
| 2026-04-30 20:48 | -8.11574 | -34.92668 | 45 ft | 18 kts | 162° |
| 2026-04-30 20:48 | -8.11948 | -34.92543 | 44 ft | 93 kts | 161° |
| 2026-04-30 20:48 | -8.12753 | -34.92284 | 56 ft | 146 kts | 161° |
| 2026-04-30 20:49 | -8.13727 | -34.91993 | 665 ft | 142 kts | 163° |
| 2026-04-30 20:49 | -8.14691 | -34.91703 | 1231 ft | 146 kts | 161° |
| 2026-04-30 20:49 | -8.15660 | -34.91384 | 1849 ft | 150 kts | 159° |
| 2026-04-30 20:50 | -8.17912 | -34.90625 | 2501 ft | 191 kts | 159° |
| 2026-04-30 20:50 | -8.18801 | -34.90328 | 2653 ft | 205 kts | 159° |
| 2026-04-30 20:50 | -8.20170 | -34.89786 | 2996 ft | 221 kts | 147° |
| 2026-04-30 20:50 | -8.21288 | -34.88630 | 3355 ft | 245 kts | 117° |
| 2026-04-30 20:51 | -8.21564 | -34.86931 | 3983 ft | 259 kts | 82° |
| 2026-04-30 20:51 | -8.19629 | -34.83842 | 5677 ft | 277 kts | 34° |
| 2026-04-30 20:51 | -8.17928 | -34.82893 | 6526 ft | 281 kts | 30° |
| 2026-04-30 20:52 | -8.16196 | -34.81966 | 7371 ft | 283 kts | 30° |
| 2026-04-30 20:52 | -8.14456 | -34.81039 | 8243 ft | 284 kts | 30° |
| 2026-04-30 20:52 | -8.10953 | -34.79162 | 9963 ft | 287 kts | 31° |
| 2026-04-30 20:53 | -8.09148 | -34.78190 | 10382 ft | 304 kts | 31° |
| 2026-04-30 20:53 | -8.07213 | -34.77142 | 10568 ft | 327 kts | 31° |
| 2026-04-30 20:53 | -8.05156 | -34.76031 | 10970 ft | 340 kts | 31° |
| 2026-04-30 20:54 | -8.03639 | -34.75215 | 11413 ft | 344 kts | 31° |
| 2026-04-30 20:54 | -8.02008 | -34.74340 | 11899 ft | 348 kts | 30° |
| 2026-04-30 20:54 | -7.99845 | -34.73181 | 12543 ft | 352 kts | 30° |
| 2026-04-30 20:55 | -7.95461 | -34.70832 | 13793 ft | 361 kts | 30° |
| 2026-04-30 20:55 | -7.93225 | -34.69634 | 14338 ft | 365 kts | 31° |
| 2026-04-30 20:55 | -7.90981 | -34.68429 | 14920 ft | 367 kts | 31° |
| 2026-04-30 20:56 | -7.86440 | -34.65991 | 16119 ft | 371 kts | 31° |
| 2026-04-30 20:56 | -7.84151 | -34.64764 | 16707 ft | 374 kts | 31° |
| 2026-04-30 20:56 | -7.79534 | -34.62285 | 17828 ft | 379 kts | 32° |
| 2026-04-30 20:57 | -7.77196 | -34.61028 | 18366 ft | 381 kts | 32° |
| 2026-04-30 20:57 | -7.74844 | -34.59767 | 18812 ft | 384 kts | 32° |
| 2026-04-30 20:57 | -7.72477 | -34.58502 | 19257 ft | 387 kts | 31° |
| 2026-04-30 20:58 | -7.67680 | -34.55928 | 20128 ft | 393 kts | 31° |
| 2026-04-30 20:58 | -7.65262 | -34.54628 | 20556 ft | 395 kts | 31° |
| 2026-04-30 20:58 | -7.62827 | -34.53319 | 20977 ft | 398 kts | 31° |
| 2026-04-30 20:58 | -7.60374 | -34.52004 | 21394 ft | 401 kts | 31° |
| 2026-04-30 20:59 | -7.55403 | -34.49342 | 22224 ft | 407 kts | 31° |
| 2026-04-30 20:59 | -7.52894 | -34.48000 | 22634 ft | 410 kts | 30° |
| 2026-04-30 21:00 | -7.47827 | -34.45289 | 23428 ft | 415 kts | 30° |
| 2026-04-30 21:00 | -7.42732 | -34.42559 | 24100 ft | 420 kts | 30° |
| 2026-04-30 21:01 | -7.37542 | -34.39775 | 24775 ft | 424 kts | 30° |
| 2026-04-30 21:01 | -7.34926 | -34.38374 | 25110 ft | 427 kts | 30° |
| 2026-04-30 21:01 | -7.29652 | -34.35557 | 25792 ft | 431 kts | 30° |
| 2026-04-30 21:02 | -7.27002 | -34.34138 | 26129 ft | 433 kts | 30° |
| 2026-04-30 21:02 | -7.24336 | -34.32713 | 26459 ft | 435 kts | 29° |
| 2026-04-30 21:02 | -7.21658 | -34.31281 | 26796 ft | 436 kts | 30° |
| 2026-04-30 21:02 | -7.18972 | -34.29845 | 27106 ft | 439 kts | 29° |
| 2026-04-30 21:03 | -7.16264 | -34.28397 | 27409 ft | 441 kts | 29° |
| 2026-04-30 21:03 | -7.13548 | -34.26944 | 27732 ft | 443 kts | 30° |
| 2026-04-30 21:03 | -7.10805 | -34.25476 | 28030 ft | 445 kts | 30° |
| 2026-04-30 21:03 | -7.08059 | -34.24007 | 28348 ft | 447 kts | 29° |
| 2026-04-30 21:04 | -7.05299 | -34.22529 | 28636 ft | 449 kts | 30° |
| 2026-04-30 21:04 | -7.02531 | -34.21048 | 28942 ft | 451 kts | 29° |
| 2026-04-30 21:04 | -6.96998 | -34.18095 | 29522 ft | 455 kts | 28° |
| 2026-04-30 21:05 | -6.94156 | -34.16577 | 29778 ft | 457 kts | 29° |
| 2026-04-30 21:05 | -6.91380 | -34.15095 | 30066 ft | 459 kts | 29° |
| 2026-04-30 21:05 | -6.88550 | -34.13583 | 30257 ft | 462 kts | 30° |
| 2026-04-30 21:05 | -6.85706 | -34.12067 | 30515 ft | 464 kts | 28° |
| 2026-04-30 21:06 | -6.82854 | -34.10545 | 30815 ft | 464 kts | 28° |
| 2026-04-30 21:06 | -6.80011 | -34.09027 | 31183 ft | 463 kts | 28° |
| 2026-04-30 21:06 | -6.77166 | -34.07507 | 31514 ft | 463 kts | 28° |
| 2026-04-30 21:06 | -6.74330 | -34.05992 | 31889 ft | 462 kts | 28° |
| 2026-04-30 21:07 | -6.71489 | -34.04477 | 32249 ft | 462 kts | 27° |
| 2026-04-30 21:07 | -6.68654 | -34.02966 | 32627 ft | 461 kts | 27° |
| 2026-04-30 21:07 | -6.65815 | -34.01454 | 32979 ft | 461 kts | 27° |
| 2026-04-30 21:07 | -6.62986 | -33.99947 | 33372 ft | 460 kts | 27° |
| 2026-04-30 21:08 | -6.60163 | -33.98437 | 33728 ft | 460 kts | 27° |
| 2026-04-30 21:08 | -6.57341 | -33.96924 | 34088 ft | 459 kts | 27° |
| 2026-04-30 21:08 | -6.54518 | -33.95412 | 34419 ft | 458 kts | 26° |
| 2026-04-30 21:08 | -6.51711 | -33.93914 | 34788 ft | 456 kts | 26° |
| 2026-04-30 21:09 | -6.48906 | -33.92421 | 35140 ft | 455 kts | 26° |
| 2026-04-30 21:09 | -6.46114 | -33.90937 | 35518 ft | 453 kts | 27° |
| 2026-04-30 21:09 | -6.43331 | -33.89458 | 35856 ft | 451 kts | 26° |
| 2026-04-30 21:09 | -6.40557 | -33.87981 | 36227 ft | 449 kts | 27° |
| 2026-04-30 21:10 | -6.37829 | -33.86527 | 36555 ft | 449 kts | 25° |
| 2026-04-30 21:10 | -6.35075 | -33.85062 | 36907 ft | 447 kts | 26° |
| 2026-04-30 21:10 | -6.32328 | -33.83599 | 37218 ft | 446 kts | 27° |
| 2026-04-30 21:10 | -6.29579 | -33.82136 | 37455 ft | 447 kts | 27° |
| 2026-04-30 21:11 | -6.26835 | -33.80674 | 37680 ft | 448 kts | 27° |
| 2026-04-30 21:11 | -6.24085 | -33.79207 | 37973 ft | 447 kts | 27° |
| 2026-04-30 21:11 | -6.21334 | -33.77743 | 38249 ft | 446 kts | 27° |
| 2026-04-30 21:11 | -6.18596 | -33.76283 | 38565 ft | 445 kts | 27° |
| 2026-04-30 21:12 | -6.15860 | -33.74826 | 38800 ft | 444 kts | 27° |
| 2026-04-30 21:12 | -6.13123 | -33.73366 | 38921 ft | 445 kts | 27° |
| 2026-04-30 21:12 | -6.07657 | -33.70451 | 38947 ft | 445 kts | 27° |
| 2026-04-30 21:13 | -6.02174 | -33.67543 | 38947 ft | 445 kts | 27° |
| 2026-04-30 21:13 | -5.96670 | -33.64610 | 38947 ft | 450 kts | 27° |
| 2026-04-30 21:14 | -5.91135 | -33.61662 | 38950 ft | 451 kts | 26° |
| 2026-04-30 21:14 | -5.85582 | -33.58715 | 38955 ft | 451 kts | 26° |
| 2026-04-30 21:15 | -5.80025 | -33.55764 | 38955 ft | 452 kts | 26° |
| 2026-04-30 21:15 | -5.74468 | -33.52811 | 38958 ft | 452 kts | 27° |
| 2026-04-30 21:16 | -5.68909 | -33.49855 | 38963 ft | 453 kts | 26° |
| 2026-04-30 21:16 | -5.63333 | -33.46894 | 38960 ft | 454 kts | 26° |
| 2026-04-30 21:17 | -5.57750 | -33.43928 | 38958 ft | 454 kts | 26° |
| 2026-04-30 21:17 | -5.52161 | -33.40955 | 38965 ft | 455 kts | 26° |
| 2026-04-30 21:18 | -5.46590 | -33.38000 | 38968 ft | 455 kts | 26° |
| 2026-04-30 21:18 | -5.40979 | -33.35025 | 38967 ft | 455 kts | 26° |
| 2026-04-30 21:19 | -5.35377 | -33.32059 | 38962 ft | 456 kts | 26° |
| 2026-04-30 21:19 | -5.29760 | -33.29075 | 38961 ft | 457 kts | 26° |
| 2026-04-30 21:20 | -5.24136 | -33.26080 | 38961 ft | 458 kts | 26° |
| 2026-04-30 21:20 | -5.18498 | -33.23088 | 38965 ft | 458 kts | 26° |
| 2026-04-30 21:21 | -5.12858 | -33.20104 | 38965 ft | 458 kts | 26° |
| 2026-04-30 21:22 | -5.04389 | -33.15621 | 38976 ft | 459 kts | 26° |
| 2026-04-30 21:23 | -4.93087 | -33.09633 | 38970 ft | 459 kts | 26° |
| 2026-04-30 21:23 | -4.84605 | -33.05148 | 38968 ft | 459 kts | 27° |
| 2026-04-30 21:24 | -4.78950 | -33.02156 | 38966 ft | 460 kts | 27° |
| 2026-04-30 21:24 | -4.73287 | -32.99156 | 38959 ft | 460 kts | 27° |
| 2026-04-30 21:25 | -4.64795 | -32.94655 | 38956 ft | 461 kts | 26° |
| 2026-04-30 21:26 | -4.56272 | -32.90145 | 38956 ft | 462 kts | 27° |
| 2026-04-30 21:27 | -4.47782 | -32.85662 | 38958 ft | 462 kts | 27° |
| 2026-04-30 21:27 | -4.42095 | -32.82645 | 38955 ft | 462 kts | 27° |
| 2026-04-30 21:28 | -4.33554 | -32.78118 | 38958 ft | 463 kts | 27° |
| 2026-04-30 21:29 | -4.25929 | -32.74088 | 38959 ft | 463 kts | 27° |
| 2026-04-30 21:30 | -4.11678 | -32.66560 | 38963 ft | 463 kts | 27° |
| 2026-04-30 21:31 | -3.97463 | -32.59052 | 38951 ft | 463 kts | 26° |
| 2026-04-30 21:32 | -3.88927 | -32.54543 | 38945 ft | 462 kts | 27° |
| 2026-04-30 21:32 | -3.83232 | -32.51533 | 38949 ft | 461 kts | 26° |
| 2026-04-30 21:33 | -3.74727 | -32.47038 | 38947 ft | 460 kts | 27° |
| 2026-04-30 21:34 | -3.69060 | -32.44049 | 38952 ft | 460 kts | 27° |
| 2026-04-30 21:34 | -3.60564 | -32.39573 | 38955 ft | 460 kts | 26° |
| 2026-04-30 21:35 | -3.54914 | -32.36586 | 38960 ft | 460 kts | 26° |
| 2026-04-30 21:35 | -3.49256 | -32.33602 | 38961 ft | 460 kts | 26° |
| 2026-04-30 21:36 | -3.43632 | -32.30639 | 38964 ft | 460 kts | 27° |
| 2026-04-30 21:37 | -3.32308 | -32.24662 | 38968 ft | 460 kts | 27° |
| 2026-04-30 21:37 | -3.26645 | -32.21678 | 38967 ft | 459 kts | 26° |
| 2026-04-30 21:38 | -3.20991 | -32.18698 | 38965 ft | 459 kts | 27° |
| 2026-04-30 21:38 | -3.15331 | -32.15707 | 38963 ft | 459 kts | 27° |
| 2026-04-30 21:39 | -3.09669 | -32.12727 | 38960 ft | 459 kts | 27° |
| 2026-04-30 21:39 | -3.04019 | -32.09752 | 38959 ft | 459 kts | 27° |
| 2026-04-30 21:40 | -2.98362 | -32.06769 | 38960 ft | 459 kts | 27° |
| 2026-04-30 21:40 | -2.92708 | -32.03792 | 38950 ft | 459 kts | 27° |
| 2026-04-30 21:41 | -2.87044 | -32.00809 | 38943 ft | 460 kts | 28° |
| 2026-04-30 21:41 | -2.81368 | -31.97816 | 38941 ft | 461 kts | 28° |
| 2026-04-30 21:42 | -2.75732 | -31.94846 | 38945 ft | 461 kts | 28° |
| 2026-04-30 21:42 | -2.70052 | -31.91858 | 38948 ft | 462 kts | 28° |
| 2026-04-30 21:43 | -2.64364 | -31.88861 | 38947 ft | 462 kts | 28° |
| 2026-04-30 21:43 | -2.58679 | -31.85867 | 38955 ft | 462 kts | 27° |
| 2026-04-30 21:44 | -2.52987 | -31.82867 | 38957 ft | 462 kts | 27° |
| 2026-04-30 21:44 | -2.47307 | -31.79876 | 38957 ft | 462 kts | 27° |
| 2026-04-30 21:45 | -2.41623 | -31.76878 | 38953 ft | 462 kts | 27° |
| 2026-04-30 21:45 | -2.35933 | -31.73879 | 38949 ft | 462 kts | 27° |
| 2026-04-30 21:46 | -2.30235 | -31.70890 | 38953 ft | 462 kts | 27° |
| 2026-04-30 21:46 | -2.24545 | -31.67899 | 38958 ft | 461 kts | 27° |
| 2026-04-30 21:47 | -2.18876 | -31.64913 | 38964 ft | 460 kts | 27° |
| 2026-04-30 21:47 | -2.13255 | -31.61950 | 38962 ft | 459 kts | 27° |
| 2026-04-30 21:48 | -2.07575 | -31.58961 | 38960 ft | 458 kts | 27° |
| 2026-04-30 21:48 | -2.01979 | -31.56015 | 38957 ft | 457 kts | 27° |
| 2026-04-30 21:49 | -1.96348 | -31.53053 | 38957 ft | 457 kts | 27° |
| 2026-04-30 21:49 | -1.90721 | -31.50089 | 38960 ft | 457 kts | 28° |
| 2026-04-30 21:50 | -1.85101 | -31.47139 | 38955 ft | 456 kts | 28° |
| 2026-04-30 21:50 | -1.79472 | -31.44182 | 38956 ft | 456 kts | 28° |
| 2026-04-30 21:51 | -1.73882 | -31.41239 | 38956 ft | 456 kts | 28° |
| 2026-04-30 21:51 | -1.68265 | -31.38286 | 38956 ft | 456 kts | 28° |
| 2026-04-30 21:52 | -1.62653 | -31.35332 | 38964 ft | 456 kts | 28° |
| 2026-04-30 21:52 | -1.57019 | -31.32370 | 38938 ft | 458 kts | 28° |
| 2026-04-30 21:53 | -1.51369 | -31.29394 | 38939 ft | 460 kts | 28° |
| 2026-04-30 21:53 | -1.45706 | -31.26410 | 38936 ft | 461 kts | 28° |
| 2026-04-30 21:54 | -1.40020 | -31.23427 | 38944 ft | 461 kts | 28° |
| 2026-04-30 21:54 | -1.34331 | -31.20448 | 38950 ft | 462 kts | 28° |
| 2026-04-30 21:55 | -1.28635 | -31.17453 | 38953 ft | 463 kts | 27° |
| 2026-04-30 21:55 | -1.22925 | -31.14447 | 38953 ft | 464 kts | 27° |
| 2026-04-30 21:56 | -1.17206 | -31.11447 | 38952 ft | 464 kts | 27° |
| 2026-04-30 21:56 | -1.11480 | -31.08439 | 38954 ft | 465 kts | 27° |
| 2026-04-30 21:57 | -1.05758 | -31.05428 | 38959 ft | 465 kts | 27° |
| 2026-04-30 21:57 | -1.00062 | -31.02429 | 38962 ft | 466 kts | 27° |
| 2026-04-30 21:58 | -0.94331 | -30.99415 | 38961 ft | 465 kts | 26° |
| 2026-04-30 21:58 | -0.88602 | -30.96409 | 38967 ft | 465 kts | 26° |
| 2026-04-30 21:59 | -0.82880 | -30.93401 | 38966 ft | 465 kts | 26° |
| 2026-04-30 22:00 | -0.74291 | -30.88896 | 38966 ft | 465 kts | 27° |
| 2026-04-30 22:00 | -0.65702 | -30.84378 | 38968 ft | 465 kts | 27° |
| 2026-04-30 22:01 | -0.59979 | -30.81367 | 38967 ft | 465 kts | 26° |
| 2026-04-30 22:01 | -0.54245 | -30.78356 | 38966 ft | 465 kts | 26° |
| 2026-04-30 22:02 | -0.48524 | -30.75351 | 38968 ft | 465 kts | 26° |
| 2026-04-30 22:02 | -0.42792 | -30.72340 | 38966 ft | 465 kts | 26° |
| 2026-04-30 22:03 | -0.37071 | -30.69329 | 38968 ft | 465 kts | 26° |
| 2026-04-30 22:03 | -0.31338 | -30.66313 | 38968 ft | 465 kts | 26° |
| 2026-04-30 22:04 | -0.25612 | -30.63309 | 38966 ft | 465 kts | 26° |
| 2026-04-30 22:05 | -0.17010 | -30.58802 | 38963 ft | 465 kts | 26° |
| 2026-04-30 22:05 | -0.11285 | -30.55796 | 38962 ft | 465 kts | 26° |
| 2026-04-30 22:06 | -0.05558 | -30.52787 | 38965 ft | 465 kts | 26° |
| 2026-04-30 22:06 | 0.03034 | -30.48257 | 38963 ft | 465 kts | 26° |
| 2026-04-30 22:07 | 0.08770 | -30.45246 | 38964 ft | 465 kts | 26° |
| 2026-04-30 22:07 | 0.14497 | -30.42243 | 38965 ft | 465 kts | 26° |
| 2026-04-30 22:08 | 0.19255 | -30.39748 | 38967 ft | 464 kts | 26° |
| 2026-04-30 22:08 | 0.24969 | -30.36737 | 38961 ft | 465 kts | 26° |
| 2026-04-30 22:09 | 0.30692 | -30.33733 | 38964 ft | 465 kts | 26° |
| 2026-04-30 22:09 | 0.36423 | -30.30723 | 38964 ft | 465 kts | 26° |
| 2026-04-30 22:10 | 0.42153 | -30.27716 | 38966 ft | 465 kts | 26° |
| 2026-04-30 22:10 | 0.47890 | -30.24697 | 38966 ft | 465 kts | 27° |
| 2026-04-30 22:11 | 0.56481 | -30.20183 | 38971 ft | 465 kts | 27° |
| 2026-04-30 22:12 | 0.62200 | -30.17173 | 38965 ft | 464 kts | 26° |
| 2026-04-30 22:12 | 0.67919 | -30.14166 | 38968 ft | 464 kts | 26° |
| 2026-04-30 22:13 | 0.73627 | -30.11174 | 38975 ft | 463 kts | 26° |
| 2026-04-30 22:13 | 0.79321 | -30.08183 | 38977 ft | 462 kts | 26° |
| 2026-04-30 22:14 | 0.85013 | -30.05195 | 38969 ft | 462 kts | 26° |
| 2026-04-30 22:14 | 0.90701 | -30.02211 | 38970 ft | 462 kts | 26° |
| 2026-04-30 22:15 | 0.96387 | -29.99224 | 38972 ft | 461 kts | 26° |
| 2026-04-30 22:15 | 1.02035 | -29.96252 | 38962 ft | 461 kts | 25° |
| 2026-04-30 22:16 | 1.07715 | -29.93267 | 38965 ft | 461 kts | 25° |
| 2026-04-30 22:17 | 1.19088 | -29.87293 | 38964 ft | 462 kts | 25° |
| 2026-04-30 22:17 | 1.27632 | -29.82800 | 38968 ft | 463 kts | 25° |
| 2026-04-30 22:18 | 1.36175 | -29.78299 | 38967 ft | 462 kts | 26° |
| 2026-04-30 22:19 | 1.44718 | -29.73812 | 38969 ft | 462 kts | 26° |
| 2026-04-30 22:20 | 1.53265 | -29.69320 | 38969 ft | 462 kts | 26° |
| 2026-04-30 22:20 | 1.61806 | -29.64824 | 38968 ft | 462 kts | 26° |
| 2026-04-30 22:21 | 1.67474 | -29.61847 | 38973 ft | 462 kts | 26° |
| 2026-04-30 22:21 | 1.73165 | -29.58853 | 38974 ft | 462 kts | 26° |
| 2026-04-30 22:22 | 1.78851 | -29.55866 | 38975 ft | 461 kts | 26° |
| 2026-04-30 22:22 | 1.84534 | -29.52877 | 38975 ft | 461 kts | 26° |
| 2026-04-30 22:23 | 1.90205 | -29.49897 | 38978 ft | 460 kts | 26° |
| 2026-04-30 22:23 | 1.95862 | -29.46923 | 38980 ft | 459 kts | 26° |
| 2026-04-30 22:24 | 2.01505 | -29.43947 | 38972 ft | 458 kts | 26° |
| 2026-04-30 22:24 | 2.07151 | -29.40976 | 38971 ft | 458 kts | 26° |
| 2026-04-30 22:25 | 2.12786 | -29.38013 | 38974 ft | 457 kts | 26° |
| 2026-04-30 22:25 | 2.18417 | -29.35044 | 38973 ft | 457 kts | 26° |
| 2026-04-30 22:26 | 2.26884 | -29.30592 | 38969 ft | 458 kts | 26° |
| 2026-04-30 22:27 | 2.32525 | -29.27625 | 38972 ft | 458 kts | 26° |
| 2026-04-30 22:27 | 2.40969 | -29.23174 | 38970 ft | 458 kts | 26° |
| 2026-04-30 22:28 | 2.49403 | -29.18746 | 38967 ft | 458 kts | 26° |
| 2026-04-30 22:29 | 2.60673 | -29.12809 | 38970 ft | 457 kts | 26° |
| 2026-04-30 22:31 | 2.80401 | -29.02415 | 38967 ft | 459 kts | 26° |
| 2026-04-30 22:32 | 2.94525 | -28.94968 | 38972 ft | 459 kts | 26° |
| 2026-04-30 22:33 | 3.08636 | -28.87541 | 38970 ft | 458 kts | 26° |
| 2026-04-30 22:35 | 3.22687 | -28.80126 | 38966 ft | 458 kts | 26° |
| 2026-04-30 22:36 | 3.36783 | -28.72687 | 38967 ft | 458 kts | 26° |
| 2026-04-30 22:37 | 3.48087 | -28.66732 | 38968 ft | 458 kts | 26° |
| 2026-04-30 22:38 | 3.59344 | -28.60797 | 38976 ft | 458 kts | 26° |
| 2026-04-30 22:39 | 3.67792 | -28.56328 | 38967 ft | 458 kts | 26° |
| 2026-04-30 22:40 | 3.84715 | -28.47406 | 38969 ft | 459 kts | 25° |
| 2026-04-30 22:41 | 3.98844 | -28.39942 | 38971 ft | 459 kts | 26° |
| 2026-04-30 22:43 | 4.15821 | -28.30966 | 38971 ft | 461 kts | 25° |
| 2026-04-30 22:44 | 4.27169 | -28.24974 | 38975 ft | 461 kts | 25° |
| 2026-04-30 22:45 | 4.44176 | -28.15985 | 38973 ft | 462 kts | 25° |
| 2026-04-30 22:47 | 4.61270 | -28.06939 | 38979 ft | 463 kts | 25° |
| 2026-04-30 22:48 | 4.72650 | -28.00901 | 38986 ft | 462 kts | 25° |
| 2026-04-30 22:49 | 4.88768 | -27.92377 | 38988 ft | 462 kts | 25° |
| 2026-04-30 22:51 | 5.05838 | -27.83334 | 38988 ft | 462 kts | 24° |
| 2026-04-30 22:52 | 5.14354 | -27.78801 | 38987 ft | 462 kts | 25° |
| 2026-04-30 22:53 | 5.25731 | -27.72781 | 38992 ft | 462 kts | 24° |
| 2026-04-30 22:53 | 5.34228 | -27.68287 | 38996 ft | 462 kts | 24° |
| 2026-04-30 22:55 | 5.48432 | -27.60739 | 38991 ft | 462 kts | 24° |
| 2026-04-30 22:56 | 5.59795 | -27.54701 | 38992 ft | 462 kts | 24° |
| 2026-04-30 22:57 | 5.74024 | -27.47145 | 38993 ft | 463 kts | 24° |
| 2026-04-30 22:58 | 5.85367 | -27.41117 | 39003 ft | 462 kts | 24° |
| 2026-04-30 22:59 | 6.02413 | -27.32037 | 38999 ft | 461 kts | 24° |